Hightstown, New Jersey
Current Conditions -  °F | °C
As of 3:53 AM on Wednesday 22 Oct 2014 (Local Time) from KTTN Reporting Station
Broken Clouds Broken Clouds  
Wind Chill: 54°   Ceiling: 2100
Heat Index: 54°   Visibility: 10mi
Dew Point: 50°   Wind: 8mph
Humidity: 86%   Direction: 10°N
Pressure: 29.85"   Gusts: NA
Location:  40.27°N, 74.52°W
Report Text: KTTN 220753Z AUTO 01007KT 10SM SCT014 BKN021 BKN027 12/10 A2985 RMK AO2 SLP101 T01220100
Loading
Personal Weather Stations






























Interactive Weather Map New forecast layout! Learn more

10-Day Weather Forecast

Advertisements
Track Severe Weather on mobile